createdAt,value
2022-11-02T00:00:40.461Z,97682.75
2022-11-02T00:03:41.944Z,97704.31
2022-11-02T00:06:44.625Z,97689.47
2022-11-02T00:09:46.136Z,97705.00
2022-11-02T00:12:47.844Z,97734.06
2022-11-02T00:15:49.399Z,97717.69
2022-11-02T00:18:51.523Z,97734.78
2022-11-02T00:21:53.019Z,97729.84
2022-11-02T00:24:54.503Z,97721.16
2022-11-02T00:27:56.034Z,97733.13
2022-11-02T00:30:57.742Z,97740.59
2022-11-02T00:34:00.719Z,97722.63
2022-11-02T00:37:03.472Z,97744.94
2022-11-02T00:40:05.232Z,97745.72
2022-11-02T00:43:06.744Z,97748.16
2022-11-02T00:46:08.768Z,97760.56
2022-11-02T00:49:11.031Z,97761.41
2022-11-02T00:52:12.870Z,97774.91
2022-11-02T00:55:15.504Z,97768.06
2022-11-02T00:58:19.107Z,97773.88
2022-11-02T01:01:20.784Z,97789.75
2022-11-02T01:04:22.419Z,97770.47
2022-11-02T01:07:23.917Z,97765.47
2022-11-02T01:10:26.261Z,97766.75
2022-11-02T01:13:27.899Z,97786.59
2022-11-02T01:16:29.404Z,97787.66
2022-11-02T01:19:30.891Z,97800.09
2022-11-02T01:22:32.550Z,97815.69
2022-11-02T01:25:34.033Z,97820.94
2022-11-02T01:28:35.788Z,97837.31
2022-11-02T01:31:37.355Z,97836.78
2022-11-02T01:34:38.840Z,97850.25
2022-11-02T01:37:40.421Z,97842.81
2022-11-02T01:40:43.498Z,97856.81
2022-11-02T01:43:45.514Z,97855.75
2022-11-02T01:46:47.030Z,97845.91
2022-11-02T01:49:50.917Z,97836.94
2022-11-02T01:52:52.464Z,97831.19
2022-11-02T01:55:53.970Z,97811.91
2022-11-02T01:58:57.252Z,97835.75
2022-11-02T02:01:59.044Z,97831.28
2022-11-02T02:05:05.463Z,97828.63
2022-11-02T02:08:08.420Z,97828.94
2022-11-02T02:11:28.889Z,97827.09
2022-11-02T02:14:30.424Z,97828.16
2022-11-02T02:17:43.195Z,97832.66
2022-11-02T02:20:48.788Z,97845.38
2022-11-02T02:24:28.616Z,97835.81
2022-11-02T02:27:30.595Z,97847.72
2022-11-02T02:30:34.111Z,97850.06
2022-11-02T02:33:36.406Z,97855.13
2022-11-02T02:36:59.336Z,97854.09
2022-11-02T02:40:05.533Z,97859.69
2022-11-02T02:43:22.250Z,97859.94
2022-11-02T02:46:34.747Z,97868.66
2022-11-02T02:49:42.731Z,97863.00
2022-11-02T02:52:44.303Z,97875.31
2022-11-02T02:55:46.724Z,97874.25
2022-11-02T02:58:57.675Z,97882.56
2022-11-02T03:01:59.554Z,97876.78
2022-11-02T03:05:01.186Z,97880.75
2022-11-02T03:08:05.022Z,97891.63
2022-11-02T03:11:14.220Z,97895.41
2022-11-02T03:14:36.089Z,97900.69
2022-11-02T03:17:40.468Z,97898.81
2022-11-02T03:20:45.512Z,97906.78
2022-11-02T03:23:59.282Z,97911.06
2022-11-02T03:27:00.966Z,97917.72
2022-11-02T03:30:13.926Z,97921.72
2022-11-02T03:33:20.207Z,97916.09
2022-11-02T03:36:22.978Z,97925.81
2022-11-02T03:39:28.324Z,97916.59
2022-11-02T03:42:30.685Z,97922.97
2022-11-02T03:45:36.015Z,97919.28
2022-11-02T03:48:40.691Z,97924.34
2022-11-02T03:51:43.392Z,97929.94
2022-11-02T03:54:48.991Z,97930.91
2022-11-02T03:57:51.516Z,97932.50
2022-11-02T04:01:00.211Z,97941.31
2022-11-02T04:04:03.798Z,97951.56
2022-11-02T04:07:05.560Z,97962.66
2022-11-02T04:10:07.383Z,97983.25
2022-11-02T04:13:47.694Z,97976.06
2022-11-02T04:16:49.292Z,97990.69
2022-11-02T04:19:57.827Z,97992.88
2022-11-02T04:23:20.323Z,98010.38
2022-11-02T04:26:22.567Z,98019.41
2022-11-02T04:29:24.228Z,98013.88
2022-11-02T04:32:44.488Z,98015.69
2022-11-02T04:35:49.977Z,98028.91
2022-11-02T04:38:52.711Z,98029.47
2022-11-02T04:42:02.888Z,98028.69
2022-11-02T04:45:09.943Z,98028.16
2022-11-02T04:48:11.884Z,98031.88
2022-11-02T04:51:14.108Z,98033.97
2022-11-02T04:54:15.698Z,98053.75
2022-11-02T04:57:18.803Z,98045.59
2022-11-02T05:00:20.853Z,98051.13
2022-11-02T05:03:22.728Z,98046.38
2022-11-02T05:06:24.530Z,98048.22
2022-11-02T05:09:27.643Z,98042.69
2022-11-02T05:12:29.502Z,98043.50
2022-11-02T05:15:33.432Z,98046.38
2022-11-02T05:18:37.752Z,98049.28
2022-11-02T05:21:39.874Z,98044.81
2022-11-02T05:24:42.085Z,98055.34
2022-11-02T05:27:43.786Z,98062.16
2022-11-02T05:30:46.202Z,98053.72
2022-11-02T05:33:48.039Z,98066.91
2022-11-02T05:36:53.319Z,98071.63
2022-11-02T05:39:55.305Z,98062.41
2022-11-02T05:43:01.755Z,98067.47
2022-11-02T05:46:04.167Z,98072.75
2022-11-02T05:49:05.699Z,98065.09
2022-11-02T05:52:07.351Z,98074.88
2022-11-02T05:55:09.031Z,98082.22
2022-11-02T05:58:10.608Z,98084.84
2022-11-02T06:01:12.171Z,98078.97
2022-11-02T06:04:13.849Z,98085.28
2022-11-02T06:07:15.482Z,98083.66
2022-11-02T06:10:17.282Z,98095.28
2022-11-02T06:13:18.851Z,98101.72
2022-11-02T06:16:23.229Z,98099.88
2022-11-02T06:19:25.103Z,98088.31
2022-11-02T06:22:26.652Z,98091.03
2022-11-02T06:25:28.275Z,98075.97
2022-11-02T06:28:29.938Z,98093.16
2022-11-02T06:31:32.136Z,98080.19
2022-11-02T06:34:33.838Z,98090.22
2022-11-02T06:37:35.483Z,98086.03
2022-11-02T06:40:37.032Z,98087.88
2022-11-02T06:43:38.678Z,98089.72
2022-11-02T06:46:40.335Z,98082.59
2022-11-02T06:49:41.864Z,98080.19
2022-11-02T06:52:44.553Z,98084.66
2022-11-02T06:55:46.105Z,98078.59
2022-11-02T06:58:48.486Z,98091.28
2022-11-02T07:01:54.148Z,98094.44
2022-11-02T07:04:56.113Z,98102.38
2022-11-02T07:07:57.732Z,98091.78
2022-11-02T07:10:59.353Z,98099.19
2022-11-02T07:14:01.409Z,98088.34
2022-11-02T07:17:03.096Z,98095.72
2022-11-02T07:20:05.678Z,98103.66
2022-11-02T07:23:07.804Z,98108.66
2022-11-02T07:26:09.692Z,98112.34
2022-11-02T07:29:11.285Z,98113.38
2022-11-02T07:32:12.837Z,98109.38
2022-11-02T07:35:15.169Z,98114.41
2022-11-02T07:38:16.737Z,98113.09
2022-11-02T07:41:18.429Z,98114.66
2022-11-02T07:44:19.933Z,98105.69
2022-11-02T07:47:27.971Z,98112.56
2022-11-02T07:50:29.606Z,98107.25
2022-11-02T07:53:31.239Z,98106.97
2022-11-02T07:56:32.736Z,98097.97
2022-11-02T07:59:34.338Z,98096.94
2022-11-02T08:02:36.113Z,98112.28
2022-11-02T08:05:39.129Z,98111.78
2022-11-02T08:08:41.360Z,98104.63
2022-11-02T08:11:43.148Z,98103.81
2022-11-02T08:14:44.695Z,98106.41
2022-11-02T08:17:46.290Z,98107.13
2022-11-02T08:20:48.631Z,98098.94
2022-11-02T08:23:53.632Z,98100.75
2022-11-02T08:26:59.111Z,98093.31
2022-11-02T08:30:00.674Z,98090.91
2022-11-02T08:33:06.146Z,98085.63
2022-11-02T08:36:07.982Z,98076.09
2022-11-02T08:39:12.358Z,98071.34
2022-11-02T08:42:17.776Z,98084.78
2022-11-02T08:45:19.627Z,98074.63
2022-11-02T08:48:21.279Z,98083.91
2022-11-02T08:51:22.844Z,98084.72
2022-11-02T08:54:24.471Z,98080.25
2022-11-02T08:57:25.984Z,98081.34
2022-11-02T09:00:29.010Z,98072.34
2022-11-02T09:03:30.709Z,98062.53
2022-11-02T09:06:32.418Z,98060.16
2022-11-02T09:09:34.241Z,98056.72
2022-11-02T09:12:35.830Z,98062.25
2022-11-02T09:15:37.563Z,98066.22
2022-11-02T09:18:39.180Z,98056.38
2022-11-02T09:21:40.748Z,98042.88
2022-11-02T09:24:42.307Z,98046.06
2022-11-02T09:27:43.894Z,98046.81
2022-11-02T09:30:46.391Z,98030.88
2022-11-02T09:33:48.147Z,98025.56
2022-11-02T09:36:49.681Z,98028.16
2022-11-02T09:39:51.182Z,98014.31
2022-11-02T09:43:04.918Z,98015.63
2022-11-02T09:46:08.055Z,98014.50
2022-11-02T09:49:14.148Z,97996.66
2022-11-02T09:52:21.608Z,97996.78
2022-11-02T09:55:24.807Z,97994.38
2022-11-02T09:58:37.560Z,97979.03
2022-11-02T10:01:41.996Z,97983.06
2022-11-02T10:04:49.331Z,97989.91
2022-11-02T10:07:53.578Z,97984.63
2022-11-02T10:11:05.402Z,97983.94
2022-11-02T10:14:12.477Z,97983.22
2022-11-02T10:17:26.740Z,97987.28
2022-11-02T10:20:28.295Z,97976.78
2022-11-02T10:23:29.785Z,97962.50
2022-11-02T10:26:33.112Z,97948.97
2022-11-02T10:29:40.683Z,97933.63
2022-11-02T10:36:16.987Z,97925.94
2022-11-02T10:39:36.156Z,97911.94
2022-11-02T10:42:47.288Z,97907.72
2022-11-02T10:45:58.826Z,97893.59
2022-11-02T10:49:14.346Z,97886.41
2022-11-02T10:52:16.157Z,97888.06
2022-11-02T10:55:20.370Z,97873.59
2022-11-02T10:58:22.029Z,97869.72
2022-11-02T11:01:23.685Z,97873.50
2022-11-02T11:04:26.087Z,97856.00
2022-11-02T11:07:27.779Z,97854.91
2022-11-02T11:10:29.995Z,97856.31
2022-11-02T11:20:37.466Z,97831.69
2022-11-02T11:23:38.964Z,97819.72
2022-11-02T11:26:40.472Z,97803.59
2022-11-02T11:29:46.188Z,97808.88
2022-11-02T11:32:47.763Z,97803.28
2022-11-02T11:35:49.871Z,97794.53
2022-11-02T11:38:51.389Z,97772.75
2022-11-02T11:41:52.901Z,97750.56
2022-11-02T11:45:17.741Z,97717.06
2022-11-02T11:48:28.038Z,97727.41
2022-11-02T11:51:29.588Z,97704.56
2022-11-02T11:54:32.257Z,97679.63
2022-11-02T11:57:34.237Z,97671.56
2022-11-02T12:00:36.106Z,97666.69
2022-11-02T12:03:53.382Z,97661.97
2022-11-02T12:06:58.278Z,97643.47
2022-11-02T12:09:59.832Z,97634.25
2022-11-02T12:13:10.192Z,97627.34
2022-11-02T12:16:27.492Z,97617.41
2022-11-02T12:19:34.206Z,97632.13
2022-11-02T12:22:39.651Z,97618.06
2022-11-02T12:25:41.334Z,97614.66
2022-11-02T12:28:53.907Z,97610.53
2022-11-02T12:32:01.601Z,97604.91
2022-11-02T12:35:30.407Z,97577.44
2022-11-02T12:38:35.163Z,97570.75
2022-11-02T12:41:45.762Z,97552.75
2022-11-02T12:45:02.383Z,97552.47
2022-11-02T12:48:05.093Z,97559.63
2022-11-02T12:51:14.836Z,97536.31
2022-11-02T12:54:18.665Z,97533.66
2022-11-02T12:57:21.740Z,97525.19
2022-11-02T13:00:23.378Z,97526.47
2022-11-02T13:03:46.955Z,97525.81
2022-11-02T13:06:49.338Z,97503.41
2022-11-02T13:09:56.154Z,97513.59
2022-11-02T13:12:59.244Z,97485.72
2022-11-02T13:16:00.874Z,97474.41
2022-11-02T13:19:02.392Z,97460.03
2022-11-02T13:22:03.980Z,97430.25
2022-11-02T13:25:17.863Z,97422.88
2022-11-02T13:28:22.198Z,97421.31
2022-11-02T13:31:32.374Z,97399.84
2022-11-02T13:34:34.911Z,97378.41
2022-11-02T13:37:38.508Z,97367.13
2022-11-02T13:40:41.154Z,97350.03
2022-11-02T13:43:52.440Z,97340.03
2022-11-02T13:47:00.097Z,97320.59
2022-11-02T13:50:01.595Z,97317.81
2022-11-02T13:53:05.233Z,97299.34
2022-11-02T13:56:12.203Z,97288.69
2022-11-02T13:59:21.634Z,97285.38
2022-11-02T14:02:24.218Z,97259.66
2022-11-02T14:05:35.335Z,97278.31
2022-11-02T14:08:48.352Z,97268.31
2022-11-02T14:11:49.975Z,97271.13
2022-11-02T14:15:10.407Z,97257.66
2022-11-02T14:18:13.080Z,97247.00
2022-11-02T14:21:33.362Z,97226.81
2022-11-02T14:24:34.939Z,97239.84
2022-11-02T14:27:36.891Z,97254.53
2022-11-02T14:30:44.001Z,97287.75
2022-11-02T14:34:08.901Z,97252.81
2022-11-02T14:37:49.084Z,97261.59
2022-11-02T14:41:02.747Z,97249.53
2022-11-02T14:44:10.091Z,97262.69
2022-11-02T14:47:13.396Z,97260.50
2022-11-02T14:50:15.238Z,97253.44
2022-11-02T14:53:22.917Z,97215.56
2022-11-02T14:56:25.074Z,97214.63
2022-11-02T14:59:27.829Z,97221.38
2022-11-02T15:02:40.242Z,97225.75
2022-11-02T15:05:45.458Z,97214.94
2022-11-02T15:08:52.203Z,97208.16
2022-11-02T15:12:02.606Z,97206.28
2022-11-02T15:15:22.878Z,97201.59
2022-11-02T15:18:30.288Z,97189.25
2022-11-02T15:21:31.974Z,97168.44
2022-11-02T15:24:33.487Z,97144.84
2022-11-02T15:27:35.738Z,97149.38
2022-11-02T15:30:42.576Z,97124.81
2022-11-02T15:33:51.525Z,97110.13
2022-11-02T15:36:53.055Z,97111.38
2022-11-02T15:39:55.667Z,97108.41
2022-11-02T15:43:02.693Z,97072.75
2022-11-02T15:46:11.933Z,97084.47
2022-11-02T15:49:21.280Z,97074.00
2022-11-02T15:53:01.613Z,97063.03
2022-11-02T15:56:24.255Z,97057.59
2022-11-02T15:59:28.595Z,97054.13
2022-11-02T16:02:32.086Z,97045.06
2022-11-02T16:05:34.866Z,97023.31
2022-11-02T16:08:37.991Z,97018.13
2022-11-02T16:11:39.649Z,97006.88
2022-11-02T16:14:41.367Z,96990.56
2022-11-02T16:17:43.053Z,96987.16
2022-11-02T16:20:44.892Z,96982.75
2022-11-02T16:23:47.379Z,96976.47
2022-11-02T16:26:49.191Z,96969.22
2022-11-02T16:29:51.890Z,96954.78
2022-11-02T16:32:58.909Z,96927.09
2022-11-02T16:36:00.481Z,96946.81
2022-11-02T16:39:03.457Z,96946.63
2022-11-02T16:42:08.529Z,96954.28
2022-11-02T16:45:10.779Z,96964.28
2022-11-02T16:48:19.294Z,96961.44
2022-11-02T16:51:21.155Z,96943.78
2022-11-02T16:54:35.113Z,96968.78
2022-11-02T16:57:42.118Z,96953.94
2022-11-02T17:01:10.288Z,96970.84
2022-11-02T17:04:17.417Z,96974.72
2022-11-02T17:07:23.025Z,96969.09
2022-11-02T17:10:25.743Z,96961.31
2022-11-02T17:13:28.665Z,96955.50
2022-11-02T17:16:32.805Z,96954.44
2022-11-02T17:19:40.416Z,96951.22
2022-11-02T17:22:52.401Z,96958.72
2022-11-02T17:25:53.940Z,96950.56
2022-11-02T17:28:55.506Z,96938.53
2022-11-02T17:31:58.742Z,96931.84
2022-11-02T17:35:04.667Z,96911.47
2022-11-02T17:38:06.871Z,96912.38
2022-11-02T17:41:35.717Z,96904.34
2022-11-02T17:44:37.264Z,96893.94
2022-11-02T17:47:38.787Z,96892.38
2022-11-02T17:50:40.397Z,96906.88
2022-11-02T17:53:42.203Z,96897.31
2022-11-02T17:56:43.736Z,96892.19
2022-11-02T17:59:45.490Z,96881.41
2022-11-02T18:02:54.128Z,96876.19
2022-11-02T18:05:59.815Z,96872.53
2022-11-02T18:09:11.035Z,96863.22
2022-11-02T18:12:12.884Z,96867.97
2022-11-02T18:15:15.667Z,96880.31
2022-11-02T18:18:17.187Z,96850.47
2022-11-02T18:21:18.816Z,96865.50
2022-11-02T18:24:20.727Z,96856.41
2022-11-02T18:27:24.908Z,96852.53
2022-11-02T18:30:29.034Z,96868.53
2022-11-02T18:33:30.939Z,96863.53
2022-11-02T18:36:32.496Z,96869.06
2022-11-02T18:39:34.145Z,96864.06
2022-11-02T18:42:36.464Z,96857.03
2022-11-02T18:45:37.994Z,96861.03
2022-11-02T18:48:39.547Z,96865.44
2022-11-02T18:51:45.693Z,96866.78
2022-11-02T18:54:47.376Z,96842.31
2022-11-02T18:57:50.856Z,96849.19
2022-11-02T19:00:52.442Z,96826.56
2022-11-02T19:03:58.266Z,96814.34
2022-11-02T19:07:18.304Z,96825.13
2022-11-02T19:10:19.860Z,96795.97
2022-11-02T19:13:21.407Z,96854.81
2022-11-02T19:16:23.172Z,96843.81
2022-11-02T19:19:25.029Z,96823.06
2022-11-02T19:22:26.694Z,96800.88
2022-11-02T19:25:28.264Z,96808.66
2022-11-02T19:28:30.256Z,96799.44
2022-11-02T19:31:31.951Z,96798.09
2022-11-02T19:34:34.071Z,96800.97
2022-11-02T19:37:35.610Z,96801.78
2022-11-02T19:40:37.154Z,96789.13
2022-11-02T19:43:39.338Z,96776.59
2022-11-02T19:46:40.908Z,96799.22
2022-11-02T19:49:42.440Z,96808.56
2022-11-02T19:52:46.541Z,96788.34
2022-11-02T19:55:52.011Z,96747.38
2022-11-02T19:58:53.907Z,96795.34
2022-11-02T20:01:55.618Z,96816.53
2022-11-02T20:04:57.691Z,96783.44
2022-11-02T20:07:59.367Z,96773.78
2022-11-02T20:11:08.383Z,96766.97
2022-11-02T20:14:10.148Z,96780.88
2022-11-02T20:17:30.842Z,96775.81
2022-11-02T20:20:33.311Z,96766.25
2022-11-02T20:23:35.527Z,96764.16
2022-11-02T20:26:37.801Z,96792.66
2022-11-02T20:29:40.635Z,96762.00
2022-11-02T20:32:42.296Z,96753.13
2022-11-02T20:35:44.205Z,96758.53
2022-11-02T20:38:45.951Z,96751.53
2022-11-02T20:41:47.816Z,96750.47
2022-11-02T20:44:49.799Z,96737.66
2022-11-02T20:47:52.020Z,96734.66
2022-11-02T20:50:53.563Z,96747.13
2022-11-02T20:53:55.228Z,96751.66
2022-11-02T20:56:57.031Z,96762.50
2022-11-02T20:59:58.582Z,96749.38
2022-11-02T21:03:00.102Z,96737.75
2022-11-02T21:06:04.988Z,96761.44
2022-11-02T21:09:09.230Z,96752.19
2022-11-02T21:12:32.740Z,96791.84
2022-11-02T21:15:37.376Z,96769.16
2022-11-02T21:18:38.986Z,96765.94
2022-11-02T21:21:40.527Z,96785.75
2022-11-02T21:24:42.124Z,96743.44
2022-11-02T21:27:43.618Z,96755.47
2022-11-02T21:30:45.122Z,96776.44
2022-11-02T21:33:47.004Z,96791.88
2022-11-02T21:36:48.836Z,96781.91
2022-11-02T21:39:50.335Z,96797.03
2022-11-02T21:42:51.931Z,96780.03
2022-11-02T21:45:54.212Z,96822.41
2022-11-02T21:48:55.777Z,96827.44
2022-11-02T21:51:57.351Z,96834.63
2022-11-02T21:54:58.866Z,96840.78
2022-11-02T21:58:00.373Z,96838.28
2022-11-02T22:01:22.531Z,96835.94
2022-11-02T22:04:25.537Z,96886.47
2022-11-02T22:07:27.301Z,96821.88
2022-11-02T22:10:28.790Z,96837.63
2022-11-02T22:13:33.380Z,96847.97
2022-11-02T22:16:35.951Z,96830.78
2022-11-02T22:19:37.478Z,96822.38
2022-11-02T22:22:39.323Z,96826.91
2022-11-02T22:25:41.001Z,96836.09
2022-11-02T22:28:42.868Z,96830.78
2022-11-02T22:31:45.112Z,96844.69
2022-11-02T22:34:46.950Z,96843.91
2022-11-02T22:38:07.143Z,96850.63
2022-11-02T22:41:08.899Z,96855.75
2022-11-02T22:44:14.630Z,96853.44
2022-11-02T22:47:16.116Z,96886.38
2022-11-02T22:50:17.663Z,96871.38
2022-11-02T22:53:19.218Z,96917.59
2022-11-02T22:56:21.343Z,96913.06
2022-11-02T22:59:22.850Z,96934.47
2022-11-02T23:02:24.479Z,96908.53
2022-11-02T23:05:26.027Z,96896.34
2022-11-02T23:11:36.424Z,96930.72
2022-11-02T23:14:38.104Z,96941.16
2022-11-02T23:17:39.589Z,96947.75
2022-11-02T23:20:41.117Z,96913.06
2022-11-02T23:24:01.381Z,96916.97
2022-11-02T23:27:03.164Z,96946.34
2022-11-02T23:30:23.387Z,96947.44
2022-11-02T23:33:28.120Z,96944.63
2022-11-02T23:36:29.608Z,96943.50
2022-11-02T23:39:49.375Z,96968.47
2022-11-02T23:42:51.003Z,96961.91
2022-11-02T23:45:52.550Z,96988.78
2022-11-02T23:48:54.023Z,96947.09
2022-11-02T23:52:14.295Z,96942.25
2022-11-02T23:55:34.582Z,96961.91
2022-11-02T23:58:36.520Z,96963.19
